Аэропорт: Астана. Астана

ICAO: UACC

METAR:
2019-09-21 16:00:00
UACC 211600Z 12003MPS CAVOK 13/00 Q1014 R22/0///70 NOSIG RMK QFE729/0972
METAR:
2019-09-21 11:00:00
TAF UACC 211100Z 2112/2212 14005MPS CAVOK TX30/2209Z TN10/2123Z BECMG 2120/2122 16008MPS BECMG 2200/2202 18012MPS TEMPO 2202/2209 18014G19MPS TEMPO 2209/2212 22012G17MPS